sensor_id;sensor_type;location;lat;lon;timestamp;P1;durP1;ratioP1;P2;durP2;ratioP2
61254;SDS011;47128;47.530;8.584;2023-12-20T00:02:25;7.65;;;4.68;;
61254;SDS011;47128;47.530;8.584;2023-12-20T00:04:51;8.93;;;5.40;;
61254;SDS011;47128;47.530;8.584;2023-12-20T00:07:17;9.40;;;5.43;;
61254;SDS011;47128;47.530;8.584;2023-12-20T00:09:43;7.97;;;4.40;;
61254;SDS011;47128;47.530;8.584;2023-12-20T00:12:09;9.18;;;5.03;;
61254;SDS011;47128;47.530;8.584;2023-12-20T00:14:35;8.40;;;4.40;;
61254;SDS011;47128;47.530;8.584;2023-12-20T00:17:01;8.82;;;4.97;;
61254;SDS011;47128;47.530;8.584;2023-12-20T00:19:30;9.52;;;4.95;;
61254;SDS011;47128;47.530;8.584;2023-12-20T00:21:56;10.50;;;5.28;;
61254;SDS011;47128;47.530;8.584;2023-12-20T00:24:22;9.80;;;5.00;;
61254;SDS011;47128;47.530;8.584;2023-12-20T00:26:48;8.35;;;5.28;;
61254;SDS011;47128;47.530;8.584;2023-12-20T00:29:14;9.88;;;5.32;;
61254;SDS011;47128;47.530;8.584;2023-12-20T00:31:40;7.80;;;5.30;;
61254;SDS011;47128;47.530;8.584;2023-12-20T00:34:06;9.98;;;5.70;;
61254;SDS011;47128;47.530;8.584;2023-12-20T00:36:32;8.60;;;4.60;;
61254;SDS011;47128;47.530;8.584;2023-12-20T00:38:58;11.07;;;5.53;;
61254;SDS011;47128;47.530;8.584;2023-12-20T00:41:23;8.35;;;4.70;;
61254;SDS011;47128;47.530;8.584;2023-12-20T00:43:49;8.68;;;5.10;;
61254;SDS011;47128;47.530;8.584;2023-12-20T00:46:15;9.70;;;5.22;;
61254;SDS011;47128;47.530;8.584;2023-12-20T00:48:42;10.50;;;5.03;;
61254;SDS011;47128;47.530;8.584;2023-12-20T00:51:10;10.52;;;5.03;;
61254;SDS011;47128;47.530;8.584;2023-12-20T00:53:36;9.45;;;5.15;;
61254;SDS011;47128;47.530;8.584;2023-12-20T00:56:02;9.52;;;5.63;;
61254;SDS011;47128;47.530;8.584;2023-12-20T00:58:28;7.93;;;4.85;;
61254;SDS011;47128;47.530;8.584;2023-12-20T01:00:54;10.63;;;5.45;;
61254;SDS011;47128;47.530;8.584;2023-12-20T01:03:20;9.60;;;5.20;;
61254;SDS011;47128;47.530;8.584;2023-12-20T01:05:47;13.00;;;6.18;;
61254;SDS011;47128;47.530;8.584;2023-12-20T01:08:13;7.63;;;4.45;;
61254;SDS011;47128;47.530;8.584;2023-12-20T01:10:39;7.82;;;5.05;;
61254;SDS011;47128;47.530;8.584;2023-12-20T01:13:05;11.25;;;5.78;;
61254;SDS011;47128;47.530;8.584;2023-12-20T01:15:31;12.82;;;5.78;;
61254;SDS011;47128;47.530;8.584;2023-12-20T01:17:57;11.20;;;5.72;;
61254;SDS011;47128;47.530;8.584;2023-12-20T01:20:24;11.85;;;6.20;;
61254;SDS011;47128;47.530;8.584;2023-12-20T01:22:50;10.02;;;6.18;;
61254;SDS011;47128;47.530;8.584;2023-12-20T01:25:16;11.23;;;5.95;;
61254;SDS011;47128;47.530;8.584;2023-12-20T01:27:42;12.80;;;6.15;;
61254;SDS011;47128;47.530;8.584;2023-12-20T01:30:08;10.40;;;5.93;;
61254;SDS011;47128;47.530;8.584;2023-12-20T01:32:34;12.27;;;6.07;;
61254;SDS011;47128;47.530;8.584;2023-12-20T01:35:01;11.60;;;6.35;;
61254;SDS011;47128;47.530;8.584;2023-12-20T01:37:27;11.48;;;6.32;;
61254;SDS011;47128;47.530;8.584;2023-12-20T01:39:54;11.05;;;6.30;;
61254;SDS011;47128;47.530;8.584;2023-12-20T01:42:20;14.07;;;7.13;;
61254;SDS011;47128;47.530;8.584;2023-12-20T01:44:47;11.48;;;6.10;;
61254;SDS011;47128;47.530;8.584;2023-12-20T01:47:13;12.38;;;6.63;;
61254;SDS011;47128;47.530;8.584;2023-12-20T01:49:39;13.35;;;7.13;;
61254;SDS011;47128;47.530;8.584;2023-12-20T01:52:05;12.32;;;6.80;;
61254;SDS011;47128;47.530;8.584;2023-12-20T01:54:32;11.98;;;6.63;;
61254;SDS011;47128;47.530;8.584;2023-12-20T01:56:58;11.98;;;6.30;;
61254;SDS011;47128;47.530;8.584;2023-12-20T01:59:24;13.05;;;6.65;;
61254;SDS011;47128;47.530;8.584;2023-12-20T02:01:50;11.10;;;6.35;;
61254;SDS011;47128;47.530;8.584;2023-12-20T02:04:16;11.25;;;6.75;;
61254;SDS011;47128;47.530;8.584;2023-12-20T02:06:42;10.35;;;6.55;;
61254;SDS011;47128;47.530;8.584;2023-12-20T02:09:08;11.40;;;6.47;;
61254;SDS011;47128;47.530;8.584;2023-12-20T02:11:34;12.18;;;7.07;;
61254;SDS011;47128;47.530;8.584;2023-12-20T02:14:00;12.38;;;6.00;;
61254;SDS011;47128;47.530;8.584;2023-12-20T02:16:26;11.55;;;6.70;;
61254;SDS011;47128;47.530;8.584;2023-12-20T02:18:52;11.60;;;6.40;;
61254;SDS011;47128;47.530;8.584;2023-12-20T02:21:23;12.32;;;6.40;;
61254;SDS011;47128;47.530;8.584;2023-12-20T02:23:49;12.25;;;6.80;;
61254;SDS011;47128;47.530;8.584;2023-12-20T02:26:16;11.57;;;6.47;;
61254;SDS011;47128;47.530;8.584;2023-12-20T02:28:43;9.35;;;5.90;;
61254;SDS011;47128;47.530;8.584;2023-12-20T02:31:09;10.50;;;5.97;;
61254;SDS011;47128;47.530;8.584;2023-12-20T02:33:35;11.38;;;6.32;;
61254;SDS011;47128;47.530;8.584;2023-12-20T02:36:02;13.13;;;6.57;;
61254;SDS011;47128;47.530;8.584;2023-12-20T02:38:28;12.25;;;6.78;;
61254;SDS011;47128;47.530;8.584;2023-12-20T02:40:54;11.95;;;6.45;;
61254;SDS011;47128;47.530;8.584;2023-12-20T02:43:20;11.52;;;6.80;;
61254;SDS011;47128;47.530;8.584;2023-12-20T02:45:46;11.98;;;6.82;;
61254;SDS011;47128;47.530;8.584;2023-12-20T02:48:12;13.73;;;7.00;;
61254;SDS011;47128;47.530;8.584;2023-12-20T02:50:38;12.77;;;6.93;;
61254;SDS011;47128;47.530;8.584;2023-12-20T02:53:04;13.55;;;6.90;;
61254;SDS011;47128;47.530;8.584;2023-12-20T02:55:30;11.43;;;6.70;;
61254;SDS011;47128;47.530;8.584;2023-12-20T02:57:55;11.65;;;6.18;;
61254;SDS011;47128;47.530;8.584;2023-12-20T03:00:22;10.52;;;6.03;;
61254;SDS011;47128;47.530;8.584;2023-12-20T03:02:48;12.20;;;6.60;;
61254;SDS011;47128;47.530;8.584;2023-12-20T03:05:14;14.05;;;7.45;;
61254;SDS011;47128;47.530;8.584;2023-12-20T03:07:40;13.45;;;7.05;;
61254;SDS011;47128;47.530;8.584;2023-12-20T03:10:06;11.35;;;6.78;;
61254;SDS011;47128;47.530;8.584;2023-12-20T03:12:33;13.00;;;7.15;;
61254;SDS011;47128;47.530;8.584;2023-12-20T03:14:59;13.07;;;7.35;;
61254;SDS011;47128;47.530;8.584;2023-12-20T03:17:25;11.10;;;6.60;;
61254;SDS011;47128;47.530;8.584;2023-12-20T03:19:52;15.05;;;7.32;;
61254;SDS011;47128;47.530;8.584;2023-12-20T03:22:17;12.35;;;6.80;;
61254;SDS011;47128;47.530;8.584;2023-12-20T03:24:44;11.68;;;6.32;;
61254;SDS011;47128;47.530;8.584;2023-12-20T03:27:10;12.57;;;6.90;;
61254;SDS011;47128;47.530;8.584;2023-12-20T03:29:36;12.13;;;6.68;;
61254;SDS011;47128;47.530;8.584;2023-12-20T03:32:02;11.23;;;7.30;;
61254;SDS011;47128;47.530;8.584;2023-12-20T03:34:28;14.85;;;7.25;;
61254;SDS011;47128;47.530;8.584;2023-12-20T03:36:54;12.95;;;7.30;;
61254;SDS011;47128;47.530;8.584;2023-12-20T03:39:20;13.50;;;7.95;;
61254;SDS011;47128;47.530;8.584;2023-12-20T03:41:46;12.60;;;7.25;;
61254;SDS011;47128;47.530;8.584;2023-12-20T03:44:12;11.77;;;7.43;;
61254;SDS011;47128;47.530;8.584;2023-12-20T03:46:38;15.50;;;8.00;;
61254;SDS011;47128;47.530;8.584;2023-12-20T03:49:04;12.65;;;7.05;;
61254;SDS011;47128;47.530;8.584;2023-12-20T03:51:30;15.07;;;7.97;;
61254;SDS011;47128;47.530;8.584;2023-12-20T03:53:56;13.93;;;8.30;;
61254;SDS011;47128;47.530;8.584;2023-12-20T03:56:23;15.00;;;7.63;;
61254;SDS011;47128;47.530;8.584;2023-12-20T03:58:48;12.43;;;7.00;;
61254;SDS011;47128;47.530;8.584;2023-12-20T04:01:14;13.05;;;7.22;;
61254;SDS011;47128;47.530;8.584;2023-12-20T04:03:41;13.35;;;7.38;;
61254;SDS011;47128;47.530;8.584;2023-12-20T04:06:07;15.25;;;8.07;;
61254;SDS011;47128;47.530;8.584;2023-12-20T04:08:33;14.85;;;7.65;;
61254;SDS011;47128;47.530;8.584;2023-12-20T04:10:59;17.45;;;7.85;;
61254;SDS011;47128;47.530;8.584;2023-12-20T04:13:25;16.65;;;9.70;;
61254;SDS011;47128;47.530;8.584;2023-12-20T04:15:51;15.25;;;8.32;;
61254;SDS011;47128;47.530;8.584;2023-12-20T04:18:17;15.30;;;8.80;;
61254;SDS011;47128;47.530;8.584;2023-12-20T04:20:43;13.82;;;7.63;;
61254;SDS011;47128;47.530;8.584;2023-12-20T04:23:09;16.00;;;8.90;;
61254;SDS011;47128;47.530;8.584;2023-12-20T04:25:35;15.68;;;8.15;;
61254;SDS011;47128;47.530;8.584;2023-12-20T04:28:01;15.73;;;8.45;;
61254;SDS011;47128;47.530;8.584;2023-12-20T04:30:27;13.63;;;8.75;;
61254;SDS011;47128;47.530;8.584;2023-12-20T04:32:54;18.25;;;9.35;;
61254;SDS011;47128;47.530;8.584;2023-12-20T04:35:20;14.95;;;8.63;;
61254;SDS011;47128;47.530;8.584;2023-12-20T04:37:46;14.35;;;8.65;;
61254;SDS011;47128;47.530;8.584;2023-12-20T04:40:14;16.88;;;8.90;;
61254;SDS011;47128;47.530;8.584;2023-12-20T04:42:40;15.65;;;8.57;;
61254;SDS011;47128;47.530;8.584;2023-12-20T04:45:06;15.90;;;8.50;;
61254;SDS011;47128;47.530;8.584;2023-12-20T04:47:32;13.48;;;8.57;;
61254;SDS011;47128;47.530;8.584;2023-12-20T04:49:58;15.90;;;8.75;;
61254;SDS011;47128;47.530;8.584;2023-12-20T04:52:25;13.93;;;8.35;;
61254;SDS011;47128;47.530;8.584;2023-12-20T04:54:51;14.18;;;9.20;;
61254;SDS011;47128;47.530;8.584;2023-12-20T04:57:17;14.73;;;8.52;;
61254;SDS011;47128;47.530;8.584;2023-12-20T04:59:43;17.77;;;9.35;;
61254;SDS011;47128;47.530;8.584;2023-12-20T05:02:09;13.98;;;7.88;;
61254;SDS011;47128;47.530;8.584;2023-12-20T05:04:35;14.20;;;8.27;;
61254;SDS011;47128;47.530;8.584;2023-12-20T05:07:01;16.60;;;8.88;;
61254;SDS011;47128;47.530;8.584;2023-12-20T05:09:29;14.13;;;8.27;;
61254;SDS011;47128;47.530;8.584;2023-12-20T05:11:56;14.80;;;7.93;;
61254;SDS011;47128;47.530;8.584;2023-12-20T05:14:22;15.50;;;8.50;;
61254;SDS011;47128;47.530;8.584;2023-12-20T05:16:48;16.52;;;8.77;;
61254;SDS011;47128;47.530;8.584;2023-12-20T05:19:14;13.15;;;8.23;;
61254;SDS011;47128;47.530;8.584;2023-12-20T05:21:40;15.73;;;8.85;;
61254;SDS011;47128;47.530;8.584;2023-12-20T05:24:06;15.77;;;8.98;;
61254;SDS011;47128;47.530;8.584;2023-12-20T05:26:32;15.88;;;9.50;;
61254;SDS011;47128;47.530;8.584;2023-12-20T05:28:58;15.30;;;9.48;;
61254;SDS011;47128;47.530;8.584;2023-12-20T05:31:24;14.00;;;8.63;;
61254;SDS011;47128;47.530;8.584;2023-12-20T05:33:51;15.38;;;8.52;;
61254;SDS011;47128;47.530;8.584;2023-12-20T05:36:17;16.65;;;8.73;;
61254;SDS011;47128;47.530;8.584;2023-12-20T05:38:43;17.13;;;9.85;;
61254;SDS011;47128;47.530;8.584;2023-12-20T05:41:10;16.55;;;9.45;;
61254;SDS011;47128;47.530;8.584;2023-12-20T05:43:36;15.85;;;9.05;;
61254;SDS011;47128;47.530;8.584;2023-12-20T05:46:04;15.98;;;9.20;;
61254;SDS011;47128;47.530;8.584;2023-12-20T05:48:30;14.15;;;9.07;;
61254;SDS011;47128;47.530;8.584;2023-12-20T05:50:57;19.90;;;10.32;;
61254;SDS011;47128;47.530;8.584;2023-12-20T05:53:23;17.77;;;10.40;;
61254;SDS011;47128;47.530;8.584;2023-12-20T05:55:49;17.60;;;10.07;;
61254;SDS011;47128;47.530;8.584;2023-12-20T05:58:15;16.85;;;9.88;;
61254;SDS011;47128;47.530;8.584;2023-12-20T06:00:41;17.52;;;10.48;;
61254;SDS011;47128;47.530;8.584;2023-12-20T06:03:07;17.00;;;10.27;;
61254;SDS011;47128;47.530;8.584;2023-12-20T06:05:34;16.70;;;9.82;;
61254;SDS011;47128;47.530;8.584;2023-12-20T06:08:00;18.35;;;10.35;;
61254;SDS011;47128;47.530;8.584;2023-12-20T06:10:28;16.48;;;8.70;;
61254;SDS011;47128;47.530;8.584;2023-12-20T06:12:54;17.52;;;9.63;;
61254;SDS011;47128;47.530;8.584;2023-12-20T06:15:21;16.08;;;9.68;;
61254;SDS011;47128;47.530;8.584;2023-12-20T06:17:48;16.83;;;9.88;;
61254;SDS011;47128;47.530;8.584;2023-12-20T06:20:14;18.38;;;9.80;;
61254;SDS011;47128;47.530;8.584;2023-12-20T06:22:40;19.15;;;10.85;;
61254;SDS011;47128;47.530;8.584;2023-12-20T06:25:07;20.05;;;9.95;;
61254;SDS011;47128;47.530;8.584;2023-12-20T06:33:22;22.02;;;10.68;;
61254;SDS011;47128;47.530;8.584;2023-12-20T06:35:50;22.90;;;10.45;;
61254;SDS011;47128;47.530;8.584;2023-12-20T06:38:17;16.75;;;10.10;;
61254;SDS011;47128;47.530;8.584;2023-12-20T06:40:44;19.35;;;11.18;;
61254;SDS011;47128;47.530;8.584;2023-12-20T06:43:11;17.05;;;10.15;;
61254;SDS011;47128;47.530;8.584;2023-12-20T06:45:38;18.35;;;10.48;;
61254;SDS011;47128;47.530;8.584;2023-12-20T06:48:04;17.77;;;11.48;;
61254;SDS011;47128;47.530;8.584;2023-12-20T06:50:31;17.77;;;11.10;;
61254;SDS011;47128;47.530;8.584;2023-12-20T06:53:03;20.00;;;10.48;;
61254;SDS011;47128;47.530;8.584;2023-12-20T07:04:39;19.33;;;9.90;;
61254;SDS011;47128;47.530;8.584;2023-12-20T07:10:13;19.20;;;10.25;;
61254;SDS011;47128;47.530;8.584;2023-12-20T07:12:39;16.63;;;9.63;;
61254;SDS011;47128;47.530;8.584;2023-12-20T07:15:05;20.05;;;10.70;;
61254;SDS011;47128;47.530;8.584;2023-12-20T07:17:32;19.33;;;11.00;;
61254;SDS011;47128;47.530;8.584;2023-12-20T07:19:58;18.75;;;10.25;;
61254;SDS011;47128;47.530;8.584;2023-12-20T07:22:30;14.65;;;8.93;;
61254;SDS011;47128;47.530;8.584;2023-12-20T07:24:59;17.60;;;10.65;;
61254;SDS011;47128;47.530;8.584;2023-12-20T07:27:25;16.55;;;8.98;;
61254;SDS011;47128;47.530;8.584;2023-12-20T07:45:03;15.80;;;8.60;;
61254;SDS011;47128;47.530;8.584;2023-12-20T07:47:29;14.40;;;7.82;;
61254;SDS011;47128;47.530;8.584;2023-12-20T07:49:56;14.40;;;8.35;;
61254;SDS011;47128;47.530;8.584;2023-12-20T07:52:22;15.50;;;9.30;;
61254;SDS011;47128;47.530;8.584;2023-12-20T07:54:49;15.80;;;8.00;;
61254;SDS011;47128;47.530;8.584;2023-12-20T07:57:15;12.25;;;7.75;;
61254;SDS011;47128;47.530;8.584;2023-12-20T08:08:37;9.40;;;5.43;;
61254;SDS011;47128;47.530;8.584;2023-12-20T08:14:06;9.82;;;5.95;;
61254;SDS011;47128;47.530;8.584;2023-12-20T08:16:33;8.75;;;5.75;;
61254;SDS011;47128;47.530;8.584;2023-12-20T08:18:59;10.60;;;6.25;;
61254;SDS011;47128;47.530;8.584;2023-12-20T08:21:25;8.63;;;5.10;;
61254;SDS011;47128;47.530;8.584;2023-12-20T08:23:51;11.38;;;7.30;;
61254;SDS011;47128;47.530;8.584;2023-12-20T08:26:18;10.15;;;6.30;;
61254;SDS011;47128;47.530;8.584;2023-12-20T08:28:49;9.60;;;5.75;;
61254;SDS011;47128;47.530;8.584;2023-12-20T08:31:16;9.73;;;5.68;;
61254;SDS011;47128;47.530;8.584;2023-12-20T08:33:45;9.73;;;5.75;;
61254;SDS011;47128;47.530;8.584;2023-12-20T08:36:12;11.38;;;6.80;;
61254;SDS011;47128;47.530;8.584;2023-12-20T08:38:38;10.00;;;6.68;;
61254;SDS011;47128;47.530;8.584;2023-12-20T08:41:04;9.95;;;6.85;;
61254;SDS011;47128;47.530;8.584;2023-12-20T08:43:31;10.93;;;6.35;;
61254;SDS011;47128;47.530;8.584;2023-12-20T08:45:57;10.68;;;6.10;;
61254;SDS011;47128;47.530;8.584;2023-12-20T08:48:24;11.75;;;7.10;;
61254;SDS011;47128;47.530;8.584;2023-12-20T08:50:51;10.32;;;6.07;;
61254;SDS011;47128;47.530;8.584;2023-12-20T08:53:20;11.30;;;6.32;;
61254;SDS011;47128;47.530;8.584;2023-12-20T08:55:46;11.80;;;6.80;;
61254;SDS011;47128;47.530;8.584;2023-12-20T09:04:20;11.60;;;6.55;;
61254;SDS011;47128;47.530;8.584;2023-12-20T09:06:46;10.20;;;6.43;;
61254;SDS011;47128;47.530;8.584;2023-12-20T09:09:12;12.27;;;6.50;;
61254;SDS011;47128;47.530;8.584;2023-12-20T09:11:43;12.38;;;6.30;;
61254;SDS011;47128;47.530;8.584;2023-12-20T09:14:11;11.63;;;7.20;;
61254;SDS011;47128;47.530;8.584;2023-12-20T09:16:37;8.93;;;5.90;;
61254;SDS011;47128;47.530;8.584;2023-12-20T09:19:05;11.55;;;6.65;;
61254;SDS011;47128;47.530;8.584;2023-12-20T09:21:31;12.18;;;7.35;;
61254;SDS011;47128;47.530;8.584;2023-12-20T09:23:58;11.68;;;7.03;;
61254;SDS011;47128;47.530;8.584;2023-12-20T09:26:25;11.02;;;6.70;;
61254;SDS011;47128;47.530;8.584;2023-12-20T09:28:51;11.10;;;7.05;;
61254;SDS011;47128;47.530;8.584;2023-12-20T09:31:17;10.50;;;6.65;;
61254;SDS011;47128;47.530;8.584;2023-12-20T09:33:43;11.18;;;7.28;;
61254;SDS011;47128;47.530;8.584;2023-12-20T09:36:10;10.10;;;6.43;;
61254;SDS011;47128;47.530;8.584;2023-12-20T09:38:36;11.05;;;6.80;;
61254;SDS011;47128;47.530;8.584;2023-12-20T09:41:03;11.40;;;6.60;;
61254;SDS011;47128;47.530;8.584;2023-12-20T09:43:33;10.20;;;6.70;;
61254;SDS011;47128;47.530;8.584;2023-12-20T09:46:05;10.25;;;6.63;;
61254;SDS011;47128;47.530;8.584;2023-12-20T09:48:36;13.55;;;7.70;;
61254;SDS011;47128;47.530;8.584;2023-12-20T09:53:53;9.93;;;5.82;;
61254;SDS011;47128;47.530;8.584;2023-12-20T10:05:10;9.10;;;6.07;;
61254;SDS011;47128;47.530;8.584;2023-12-20T10:07:41;10.48;;;6.55;;
61254;SDS011;47128;47.530;8.584;2023-12-20T10:10:07;11.93;;;6.85;;
61254;SDS011;47128;47.530;8.584;2023-12-20T10:12:34;11.38;;;7.03;;
61254;SDS011;47128;47.530;8.584;2023-12-20T10:15:00;12.10;;;7.10;;
61254;SDS011;47128;47.530;8.584;2023-12-20T10:17:27;10.52;;;6.40;;
61254;SDS011;47128;47.530;8.584;2023-12-20T10:19:56;11.02;;;6.35;;
61254;SDS011;47128;47.530;8.584;2023-12-20T10:22:29;9.98;;;6.00;;
61254;SDS011;47128;47.530;8.584;2023-12-20T10:24:57;9.90;;;6.45;;
61254;SDS011;47128;47.530;8.584;2023-12-20T10:27:25;9.55;;;6.07;;
61254;SDS011;47128;47.530;8.584;2023-12-20T10:29:52;9.98;;;6.18;;
61254;SDS011;47128;47.530;8.584;2023-12-20T10:35:27;10.20;;;5.68;;
61254;SDS011;47128;47.530;8.584;2023-12-20T10:38:03;8.20;;;6.05;;
61254;SDS011;47128;47.530;8.584;2023-12-20T10:43:37;5.13;;;3.78;;
61254;SDS011;47128;47.530;8.584;2023-12-20T10:46:21;6.07;;;3.67;;
61254;SDS011;47128;47.530;8.584;2023-12-20T11:00:28;4.85;;;3.40;;
61254;SDS011;47128;47.530;8.584;2023-12-20T11:02:56;5.30;;;2.92;;
61254;SDS011;47128;47.530;8.584;2023-12-20T11:05:31;3.55;;;2.53;;
61254;SDS011;47128;47.530;8.584;2023-12-20T11:08:03;2.15;;;1.90;;
61254;SDS011;47128;47.530;8.584;2023-12-20T11:13:58;2.45;;;1.70;;
61254;SDS011;47128;47.530;8.584;2023-12-20T11:16:31;1.90;;;1.60;;
61254;SDS011;47128;47.530;8.584;2023-12-20T11:22:00;1.95;;;1.45;;
61254;SDS011;47128;47.530;8.584;2023-12-20T11:27:30;3.00;;;2.15;;
61254;SDS011;47128;47.530;8.584;2023-12-20T11:29:58;1.40;;;1.23;;
61254;SDS011;47128;47.530;8.584;2023-12-20T11:40:25;1.15;;;1.05;;
61254;SDS011;47128;47.530;8.584;2023-12-20T11:45:55;2.47;;;1.23;;
61254;SDS011;47128;47.530;8.584;2023-12-20T11:48:21;2.22;;;0.90;;
61254;SDS011;47128;47.530;8.584;2023-12-20T11:50:47;1.88;;;1.33;;
61254;SDS011;47128;47.530;8.584;2023-12-20T11:53:13;1.35;;;1.23;;
61254;SDS011;47128;47.530;8.584;2023-12-20T11:55:40;2.45;;;1.50;;
61254;SDS011;47128;47.530;8.584;2023-12-20T11:58:06;2.00;;;1.20;;
61254;SDS011;47128;47.530;8.584;2023-12-20T12:00:34;1.85;;;1.17;;
61254;SDS011;47128;47.530;8.584;2023-12-20T12:03:00;1.73;;;1.17;;
61254;SDS011;47128;47.530;8.584;2023-12-20T12:05:30;1.17;;;0.80;;
61254;SDS011;47128;47.530;8.584;2023-12-20T12:07:57;1.83;;;1.13;;
61254;SDS011;47128;47.530;8.584;2023-12-20T12:10:23;1.38;;;1.27;;
61254;SDS011;47128;47.530;8.584;2023-12-20T12:12:49;1.40;;;1.02;;
61254;SDS011;47128;47.530;8.584;2023-12-20T12:15:22;1.50;;;1.20;;
61254;SDS011;47128;47.530;8.584;2023-12-20T12:17:55;1.25;;;1.15;;
61254;SDS011;47128;47.530;8.584;2023-12-20T12:20:21;2.88;;;1.17;;
61254;SDS011;47128;47.530;8.584;2023-12-20T12:23:01;2.03;;;1.00;;
61254;SDS011;47128;47.530;8.584;2023-12-20T12:25:28;1.08;;;0.90;;
61254;SDS011;47128;47.530;8.584;2023-12-20T12:27:55;1.08;;;0.90;;
61254;SDS011;47128;47.530;8.584;2023-12-20T12:36:29;0.80;;;0.80;;
61254;SDS011;47128;47.530;8.584;2023-12-20T12:38:56;2.38;;;1.02;;
61254;SDS011;47128;47.530;8.584;2023-12-20T12:41:23;1.90;;;1.10;;
61254;SDS011;47128;47.530;8.584;2023-12-20T12:43:49;3.50;;;1.30;;
61254;SDS011;47128;47.530;8.584;2023-12-20T12:46:15;1.30;;;1.15;;
61254;SDS011;47128;47.530;8.584;2023-12-20T12:48:41;4.20;;;1.20;;
61254;SDS011;47128;47.530;8.584;2023-12-20T12:51:08;1.15;;;1.05;;
61254;SDS011;47128;47.530;8.584;2023-12-20T12:56:42;1.15;;;1.00;;
61254;SDS011;47128;47.530;8.584;2023-12-20T13:02:12;1.38;;;1.10;;
61254;SDS011;47128;47.530;8.584;2023-12-20T13:07:42;1.55;;;1.27;;
61254;SDS011;47128;47.530;8.584;2023-12-20T13:16:14;2.45;;;1.38;;
61254;SDS011;47128;47.530;8.584;2023-12-20T13:18:40;1.60;;;1.10;;
61254;SDS011;47128;47.530;8.584;2023-12-20T13:21:08;2.83;;;1.42;;
61254;SDS011;47128;47.530;8.584;2023-12-20T13:23:34;1.40;;;1.30;;
61254;SDS011;47128;47.530;8.584;2023-12-20T13:31:55;3.03;;;1.50;;
61254;SDS011;47128;47.530;8.584;2023-12-20T13:34:22;2.35;;;1.50;;
61254;SDS011;47128;47.530;8.584;2023-12-20T13:36:48;2.58;;;1.50;;
61254;SDS011;47128;47.530;8.584;2023-12-20T13:39:16;5.10;;;1.95;;
61254;SDS011;47128;47.530;8.584;2023-12-20T13:41:44;3.30;;;1.60;;
61254;SDS011;47128;47.530;8.584;2023-12-20T13:44:10;1.83;;;1.17;;
61254;SDS011;47128;47.530;8.584;2023-12-20T14:01:30;3.25;;;1.30;;
61254;SDS011;47128;47.530;8.584;2023-12-20T14:06:59;2.50;;;1.40;;
61254;SDS011;47128;47.530;8.584;2023-12-20T14:12:29;3.42;;;1.83;;
61254;SDS011;47128;47.530;8.584;2023-12-20T14:14:58;3.25;;;1.70;;
61254;SDS011;47128;47.530;8.584;2023-12-20T14:23:31;4.65;;;1.80;;
61254;SDS011;47128;47.530;8.584;2023-12-20T14:31:37;4.45;;;1.83;;
61254;SDS011;47128;47.530;8.584;2023-12-20T14:34:05;6.30;;;1.55;;
61254;SDS011;47128;47.530;8.584;2023-12-20T14:36:31;4.22;;;1.77;;
61254;SDS011;47128;47.530;8.584;2023-12-20T14:38:58;2.10;;;1.33;;
61254;SDS011;47128;47.530;8.584;2023-12-20T14:41:26;4.50;;;1.38;;
61254;SDS011;47128;47.530;8.584;2023-12-20T14:49:54;1.80;;;1.30;;
61254;SDS011;47128;47.530;8.584;2023-12-20T14:54:53;4.97;;;1.50;;
61254;SDS011;47128;47.530;8.584;2023-12-20T14:57:19;2.63;;;1.60;;
61254;SDS011;47128;47.530;8.584;2023-12-20T15:08:40;2.53;;;1.70;;
61254;SDS011;47128;47.530;8.584;2023-12-20T15:11:06;3.58;;;1.30;;
61254;SDS011;47128;47.530;8.584;2023-12-20T15:13:33;4.47;;;1.30;;
61254;SDS011;47128;47.530;8.584;2023-12-20T15:19:03;3.22;;;1.10;;
61254;SDS011;47128;47.530;8.584;2023-12-20T15:30:31;8.00;;;2.75;;
61254;SDS011;47128;47.530;8.584;2023-12-20T15:32:59;7.28;;;2.45;;
61254;SDS011;47128;47.530;8.584;2023-12-20T15:35:27;3.78;;;1.05;;
61254;SDS011;47128;47.530;8.584;2023-12-20T15:37:57;3.35;;;1.20;;
61254;SDS011;47128;47.530;8.584;2023-12-20T15:40:41;4.55;;;1.20;;
61254;SDS011;47128;47.530;8.584;2023-12-20T15:45:57;2.28;;;0.90;;
61254;SDS011;47128;47.530;8.584;2023-12-20T15:48:37;3.50;;;1.50;;
61254;SDS011;47128;47.530;8.584;2023-12-20T15:54:20;4.30;;;1.10;;
61254;SDS011;47128;47.530;8.584;2023-12-20T15:56:50;4.55;;;1.33;;
61254;SDS011;47128;47.530;8.584;2023-12-20T16:02:11;2.20;;;1.05;;
61254;SDS011;47128;47.530;8.584;2023-12-20T16:04:37;4.82;;;1.13;;
61254;SDS011;47128;47.530;8.584;2023-12-20T16:13:10;3.47;;;1.02;;
61254;SDS011;47128;47.530;8.584;2023-12-20T16:27:50;9.88;;;3.92;;
61254;SDS011;47128;47.530;8.584;2023-12-20T16:30:18;11.00;;;4.50;;
61254;SDS011;47128;47.530;8.584;2023-12-20T16:32:44;8.63;;;3.20;;
61254;SDS011;47128;47.530;8.584;2023-12-20T16:35:10;9.65;;;4.85;;
61254;SDS011;47128;47.530;8.584;2023-12-20T16:37:36;9.35;;;3.38;;
61254;SDS011;47128;47.530;8.584;2023-12-20T16:40:06;7.13;;;3.13;;
61254;SDS011;47128;47.530;8.584;2023-12-20T16:42:32;4.10;;;1.83;;
61254;SDS011;47128;47.530;8.584;2023-12-20T16:44:58;4.25;;;1.50;;
61254;SDS011;47128;47.530;8.584;2023-12-20T16:47:24;4.13;;;2.20;;
61254;SDS011;47128;47.530;8.584;2023-12-20T16:52:54;8.68;;;1.80;;
61254;SDS011;47128;47.530;8.584;2023-12-20T16:55:20;8.38;;;1.80;;
61254;SDS011;47128;47.530;8.584;2023-12-20T16:57:46;3.10;;;1.40;;
61254;SDS011;47128;47.530;8.584;2023-12-20T17:00:13;4.15;;;1.70;;
61254;SDS011;47128;47.530;8.584;2023-12-20T17:02:40;5.90;;;1.60;;
61254;SDS011;47128;47.530;8.584;2023-12-20T17:05:06;5.60;;;1.70;;
61254;SDS011;47128;47.530;8.584;2023-12-20T17:07:34;4.38;;;1.77;;
61254;SDS011;47128;47.530;8.584;2023-12-20T17:10:00;4.10;;;1.48;;
61254;SDS011;47128;47.530;8.584;2023-12-20T17:12:26;8.82;;;1.75;;
61254;SDS011;47128;47.530;8.584;2023-12-20T17:14:52;2.55;;;1.30;;
61254;SDS011;47128;47.530;8.584;2023-12-20T17:17:18;2.35;;;1.17;;
61254;SDS011;47128;47.530;8.584;2023-12-20T17:19:45;4.20;;;1.23;;
61254;SDS011;47128;47.530;8.584;2023-12-20T17:22:11;5.63;;;1.58;;
61254;SDS011;47128;47.530;8.584;2023-12-20T17:24:37;3.58;;;2.10;;
61254;SDS011;47128;47.530;8.584;2023-12-20T17:27:03;4.78;;;1.40;;
61254;SDS011;47128;47.530;8.584;2023-12-20T17:32:33;3.47;;;1.52;;
61254;SDS011;47128;47.530;8.584;2023-12-20T17:35:02;3.53;;;1.23;;
61254;SDS011;47128;47.530;8.584;2023-12-20T17:37:28;6.28;;;2.45;;
61254;SDS011;47128;47.530;8.584;2023-12-20T17:39:54;9.13;;;1.88;;
61254;SDS011;47128;47.530;8.584;2023-12-20T17:42:20;4.07;;;1.63;;
61254;SDS011;47128;47.530;8.584;2023-12-20T17:44:46;4.38;;;1.60;;
61254;SDS011;47128;47.530;8.584;2023-12-20T17:47:12;5.40;;;1.67;;
61254;SDS011;47128;47.530;8.584;2023-12-20T17:49:38;5.82;;;1.50;;
61254;SDS011;47128;47.530;8.584;2023-12-20T17:52:04;10.95;;;3.97;;
61254;SDS011;47128;47.530;8.584;2023-12-20T17:54:31;13.00;;;4.78;;
61254;SDS011;47128;47.530;8.584;2023-12-20T17:56:57;4.30;;;2.30;;
61254;SDS011;47128;47.530;8.584;2023-12-20T17:59:24;5.55;;;2.15;;
61254;SDS011;47128;47.530;8.584;2023-12-20T18:01:50;8.75;;;2.63;;
61254;SDS011;47128;47.530;8.584;2023-12-20T18:04:16;4.60;;;1.92;;
61254;SDS011;47128;47.530;8.584;2023-12-20T18:06:45;5.13;;;2.15;;
61254;SDS011;47128;47.530;8.584;2023-12-20T18:09:11;8.05;;;1.92;;
61254;SDS011;47128;47.530;8.584;2023-12-20T18:11:37;4.70;;;1.83;;
61254;SDS011;47128;47.530;8.584;2023-12-20T18:14:03;3.03;;;1.58;;
61254;SDS011;47128;47.530;8.584;2023-12-20T18:16:29;3.63;;;2.00;;
61254;SDS011;47128;47.530;8.584;2023-12-20T18:18:55;4.30;;;1.63;;
61254;SDS011;47128;47.530;8.584;2023-12-20T18:21:21;7.60;;;2.72;;
61254;SDS011;47128;47.530;8.584;2023-12-20T18:23:47;4.07;;;2.22;;